Time;durP1;ratioP1;P1;durP2;ratioP2;P2;SDS_P1;SDS_P2;PMS_P1;PMS_P2;Temp;Humidity;BMP_temperature;BMP_pressure;BME280_temperature;BME280_humidity;BME280_pressure;Samples;Min_cycle;Max_cycle;Signal;HPM_P1;HPM_P2
2023/12/07 00:01:06;;;;;;;37.00;20.93;;;;;;;-143.21;94.05;72950.78;5030130;28;20218;-80
2023/12/07 00:03:34;;;;;;;37.97;21.40;;;;;;;-143.21;94.20;72942.84;5031630;28;20194;-80
2023/12/07 00:06:01;;;;;;;33.57;19.70;;;;;;;-143.21;94.24;72942.84;5032168;28;20642;-80
2023/12/07 00:08:28;;;;;;;31.63;18.57;;;;;;;-143.21;93.97;72944.81;5032107;28;20203;-81
2023/12/07 00:10:54;;;;;;;32.00;18.70;;;;;;;-143.21;93.22;72962.66;5032003;28;20198;-80
2023/12/07 00:13:21;;;;;;;31.77;18.47;;;;;;;-143.21;92.93;72946.81;5011893;28;20646;-80
2023/12/07 00:15:48;;;;;;;33.00;18.33;;;;;;;-143.21;92.60;72946.81;5000429;28;20205;-80
2023/12/07 00:18:15;;;;;;;34.03;19.50;;;;;;;-143.21;92.03;72944.81;4992436;28;20238;-80
2023/12/07 00:20:43;;;;;;;33.00;19.37;;;;;;;-143.21;91.66;72936.88;4992431;28;20199;-80
2023/12/07 00:23:10;;;;;;;33.93;19.73;;;;;;;-143.21;91.85;72938.88;4992114;28;20238;-80
2023/12/07 00:25:37;;;;;;;34.73;19.20;;;;;;;-143.21;91.78;72950.78;4992615;28;20199;-80
2023/12/07 00:28:05;;;;;;;33.53;18.83;;;;;;;-143.21;92.31;72946.81;4992847;28;20195;-81
2023/12/07 00:30:32;;;;;;;34.67;19.47;;;;;;;-143.21;92.53;72944.81;4992836;28;20198;-82
2023/12/07 00:32:59;;;;;;;36.00;19.90;;;;;;;-143.21;92.50;72946.81;4992302;28;20207;-82
2023/12/07 00:35:28;;;;;;;32.67;19.87;;;;;;;-143.21;92.71;72934.91;4992092;28;20250;-81
2023/12/07 00:37:57;;;;;;;37.17;20.50;;;;;;;-143.21;92.57;72928.94;4992700;28;20210;-81
2023/12/07 00:40:24;;;;;;;40.20;22.27;;;;;;;-143.21;92.71;72921.00;4992450;28;20309;-82
2023/12/07 00:42:51;;;;;;;38.83;20.80;;;;;;;-143.21;91.61;72915.06;4992190;28;20232;-81
2023/12/07 00:45:17;;;;;;;37.87;22.40;;;;;;;-143.21;90.58;72924.97;5002737;28;20666;-81
2023/12/07 00:47:44;;;;;;;42.50;21.57;;;;;;;-143.21;90.53;72966.63;5016186;28;20198;-80
2023/12/07 00:50:14;;;;;;;40.37;21.97;;;;;;;-143.21;91.35;73000.34;5016080;28;20700;-81
2023/12/07 00:52:41;;;;;;;33.40;19.93;;;;;;;-143.21;92.47;72988.47;5016319;28;20265;-81
2023/12/07 00:55:10;;;;;;;40.10;22.50;;;;;;;-143.21;93.28;72984.50;5015819;28;20257;-81
2023/12/07 00:57:36;;;;;;;40.30;23.40;;;;;;;-143.21;93.89;72976.56;5014949;28;20200;-81
2023/12/07 01:00:04;;;;;;;44.87;23.37;;;;;;;-143.21;93.53;72978.53;5015551;28;20203;-82
2023/12/07 01:02:31;;;;;;;40.93;24.10;;;;;;;-143.21;94.45;72962.66;5015774;28;20197;-82
2023/12/07 01:04:57;;;;;;;39.37;22.57;;;;;;;-143.21;94.31;72958.69;5015617;28;20195;-83
2023/12/07 01:07:24;;;;;;;42.17;22.40;;;;;;;-143.21;93.83;72942.84;5015410;28;20207;-83
2023/12/07 01:09:51;;;;;;;41.50;21.70;;;;;;;-143.21;93.21;72930.94;5015143;28;20705;-82
2023/12/07 01:12:19;;;;;;;34.70;21.03;;;;;;;-143.21;93.39;72924.97;5026592;28;20735;-83
2023/12/07 01:14:47;;;;;;;40.53;21.30;;;;;;;-143.21;92.75;72917.06;5035090;28;20226;-82
2023/12/07 01:17:14;;;;;;;36.60;21.33;;;;;;;-143.21;92.53;72909.13;5035367;28;20763;-83
2023/12/07 01:19:40;;;;;;;38.13;20.90;;;;;;;-143.21;91.84;72907.13;5035556;28;20202;-82
2023/12/07 01:22:07;;;;;;;37.60;20.87;;;;;;;-143.21;91.89;72909.13;5035305;28;20233;-81
2023/12/07 01:24:34;;;;;;;41.67;21.57;;;;;;;-143.21;91.67;72911.09;5034860;28;20201;-82
2023/12/07 01:27:01;;;;;;;39.23;21.13;;;;;;;-143.21;91.95;72915.06;5034996;28;20195;-80
2023/12/07 01:29:29;;;;;;;38.63;20.70;;;;;;;-143.21;92.34;72909.13;5033564;28;20191;-82
2023/12/07 01:31:56;;;;;;;40.23;21.33;;;;;;;-143.21;92.03;72907.13;5033519;28;20195;-82
2023/12/07 01:34:22;;;;;;;36.70;20.33;;;;;;;-143.21;92.55;72913.09;5034743;28;20226;-82
2023/12/07 01:36:49;;;;;;;37.13;20.30;;;;;;;-143.21;92.60;72901.19;5034550;28;20198;-81
2023/12/07 01:39:16;;;;;;;36.57;20.10;;;;;;;-143.21;92.09;72909.13;5034582;28;20207;-80
2023/12/07 01:41:43;;;;;;;36.43;19.10;;;;;;;-143.21;90.29;72919.03;5034577;28;20202;-81
2023/12/07 01:44:10;;;;;;;35.87;20.03;;;;;;;-143.21;90.20;72952.75;5033975;28;20194;-81
2023/12/07 01:46:38;;;;;;;40.77;20.83;;;;;;;-143.21;91.60;72952.75;5034728;28;20206;-81
2023/12/07 01:49:05;;;;;;;38.23;20.80;;;;;;;-143.21;92.13;72954.72;5034441;28;20206;-81
2023/12/07 01:51:32;;;;;;;36.17;20.13;;;;;;;-143.21;92.86;72944.81;5034350;28;20202;-81
2023/12/07 01:53:59;;;;;;;41.17;21.50;;;;;;;-143.21;93.17;72936.88;5034277;28;20232;-81
2023/12/07 01:56:27;;;;;;;39.20;20.43;;;;;;;-143.21;93.45;72921.00;5033870;28;20245;-82
2023/12/07 01:58:54;;;;;;;37.90;20.37;;;;;;;-143.21;92.62;72919.03;5034417;28;20206;-81
2023/12/07 02:01:21;;;;;;;38.53;19.53;;;;;;;-143.21;92.57;72913.09;5035450;28;20195;-81
2023/12/07 02:03:49;;;;;;;39.30;20.37;;;;;;;-143.21;92.06;72915.06;5034621;28;20187;-81
2023/12/07 02:06:16;;;;;;;38.70;20.30;;;;;;;-143.21;92.05;72909.13;5034143;28;20199;-80
2023/12/07 02:08:44;;;;;;;38.83;21.43;;;;;;;-143.21;92.47;72911.09;5034098;28;20669;-80
2023/12/07 02:11:11;;;;;;;39.43;21.40;;;;;;;-143.21;92.08;72905.16;5033476;28;20191;-80
2023/12/07 02:13:40;;;;;;;41.90;22.13;;;;;;;-143.21;91.86;72901.19;5033525;28;20626;-80
2023/12/07 02:16:14;;;;;;;46.10;23.53;;;;;;;-143.21;91.00;72901.19;5034001;28;20291;-81
2023/12/07 02:18:49;;;;;;;46.17;23.73;;;;;;;-143.21;90.90;72901.19;5033985;28;20197;-81
2023/12/07 02:21:26;;;;;;;44.57;24.60;;;;;;;-143.21;90.80;72899.19;5033505;28;20202;-81
2023/12/07 02:23:53;;;;;;;48.97;24.50;;;;;;;-143.21;91.08;72903.16;5033684;28;20186;-81
2023/12/07 02:26:52;;;;;;;45.77;24.33;;;;;;;-143.21;91.32;72905.16;5034603;28;20222;-82
2023/12/07 02:29:19;;;;;;;44.27;22.63;;;;;;;-143.21;91.56;72897.22;5033609;28;20202;-81
2023/12/07 02:31:46;;;;;;;46.17;23.97;;;;;;;-143.21;90.76;72923.00;5033587;28;20706;-81
2023/12/07 02:34:13;;;;;;;45.23;24.03;;;;;;;-143.21;90.08;72948.78;5032661;28;20221;-81
2023/12/07 02:36:41;;;;;;;51.90;28.37;;;;;;;-143.21;91.89;72956.72;5023353;28;20198;-82
2023/12/07 02:39:09;;;;;;;57.90;30.73;;;;;;;-143.21;92.70;72970.59;5013269;28;20198;-81
2023/12/07 02:41:37;;;;;;;59.17;29.67;;;;;;;-143.21;94.23;72978.53;5020326;28;20204;-82
2023/12/07 02:44:06;;;;;;;56.53;30.57;;;;;;;-143.21;95.08;72974.56;5033659;28;20204;-81
2023/12/07 02:46:34;;;;;;;58.03;30.97;;;;;;;-143.21;94.89;72956.72;5014834;28;20214;-81
2023/12/07 02:49:01;;;;;;;52.47;27.40;;;;;;;-143.21;94.86;72940.84;5013884;28;20239;-81
2023/12/07 02:51:27;;;;;;;54.77;28.67;;;;;;;-143.21;94.71;72934.91;5013458;28;20203;-80
2023/12/07 02:53:54;;;;;;;47.83;25.63;;;;;;;-143.21;94.22;72932.91;5013952;28;20206;-80
2023/12/07 02:56:21;;;;;;;45.47;22.80;;;;;;;-143.21;94.47;72952.75;5013230;28;20598;-80
2023/12/07 02:58:48;;;;;;;42.73;22.00;;;;;;;-143.21;94.21;72956.72;5013573;28;20199;-79
2023/12/07 03:01:16;;;;;;;43.77;21.80;;;;;;;-143.21;94.40;72944.81;5012649;28;20206;-80
2023/12/07 03:03:43;;;;;;;38.93;20.60;;;;;;;-143.21;93.69;72930.94;5013122;28;20195;-80
2023/12/07 03:06:09;;;;;;;38.17;20.07;;;;;;;-143.21;93.23;72917.06;5012867;28;20658;-81
2023/12/07 03:08:36;;;;;;;37.77;20.07;;;;;;;-143.21;93.65;72919.03;5012296;28;20199;-81
2023/12/07 03:11:03;;;;;;;39.33;19.73;;;;;;;-143.21;93.60;72909.13;5013106;28;20210;-82
2023/12/07 03:13:30;;;;;;;36.50;18.60;;;;;;;-143.21;93.26;72907.13;5012841;28;20238;-83
2023/12/07 03:15:57;;;;;;;32.53;17.93;;;;;;;-143.21;92.89;72911.09;5026471;28;20603;-83
2023/12/07 03:18:25;;;;;;;32.63;18.53;;;;;;;-143.21;92.94;72911.09;5032913;28;20195;-83
2023/12/07 03:20:52;;;;;;;29.60;16.90;;;;;;;-143.21;92.95;72907.13;5033066;28;20199;-84
2023/12/07 03:23:19;;;;;;;35.17;17.13;;;;;;;-143.21;92.76;72901.19;5033441;28;20198;-84
2023/12/07 03:25:46;;;;;;;31.63;17.17;;;;;;;-143.21;91.72;72930.94;5032545;28;20749;-84
2023/12/07 03:28:12;;;;;;;32.03;17.37;;;;;;;-143.21;91.21;72964.66;5032619;28;20560;-84
2023/12/07 03:30:39;;;;;;;30.77;16.97;;;;;;;-143.21;91.59;72986.47;5032614;28;20201;-85
2023/12/07 03:33:06;;;;;;;31.57;17.70;;;;;;;-143.21;92.33;72980.53;5032001;28;20672;-84
2023/12/07 03:35:34;;;;;;;26.57;15.37;;;;;;;-143.21;92.53;72966.63;5021318;28;20232;-84
2023/12/07 03:38:01;;;;;;;28.10;16.03;;;;;;;-143.21;92.70;72968.63;5023943;28;20209;-87
2023/12/07 03:40:28;;;;;;;31.07;17.50;;;;;;;-143.21;92.76;72950.78;5032352;28;20573;-86
2023/12/07 03:42:55;;;;;;;28.70;15.23;;;;;;;-143.21;92.29;72946.81;5032317;28;20203;-87
2023/12/07 03:45:22;;;;;;;24.63;14.33;;;;;;;-143.21;91.56;72942.84;5023637;28;20206;-80
2023/12/07 03:47:48;;;;;;;25.90;14.97;;;;;;;-143.21;91.37;72930.94;5020715;28;20677;-80
2023/12/07 03:50:15;;;;;;;29.40;16.07;;;;;;;-143.21;91.16;72928.94;5021478;28;20616;-80
2023/12/07 03:52:43;;;;;;;30.50;16.47;;;;;;;-143.21;90.93;72923.00;5012007;28;20199;-80
2023/12/07 03:55:10;;;;;;;28.23;15.13;;;;;;;-143.21;91.41;72936.88;5011875;28;20226;-80
2023/12/07 03:57:37;;;;;;;29.20;16.70;;;;;;;-143.21;90.71;72924.97;5022125;28;20703;-80
2023/12/07 04:00:07;;;;;;;29.83;17.43;;;;;;;-143.21;91.01;72932.91;5031528;28;20672;-79
2023/12/07 04:02:34;;;;;;;34.50;16.83;;;;;;;-143.21;90.83;72923.00;5031922;28;20264;-80
2023/12/07 04:05:01;;;;;;;28.37;16.20;;;;;;;-143.21;90.45;72926.97;5024485;28;20200;-79
2023/12/07 04:07:28;;;;;;;28.37;15.67;;;;;;;-143.21;90.21;72934.91;5012272;28;20203;-80
2023/12/07 04:09:57;;;;;;;30.37;16.67;;;;;;;-143.21;90.37;72932.91;5012586;28;20208;-80
2023/12/07 04:12:24;;;;;;;28.73;16.67;;;;;;;-143.21;90.52;72919.03;5031210;28;20233;-79
2023/12/07 04:14:51;;;;;;;31.20;18.03;;;;;;;-143.21;91.21;72932.91;5031326;28;20231;-80
2023/12/07 04:17:18;;;;;;;31.07;17.70;;;;;;;-143.21;90.88;72924.97;5030921;28;20210;-80
2023/12/07 04:19:45;;;;;;;32.03;17.90;;;;;;;-143.21;91.42;72924.97;5029227;28;20206;-80
2023/12/07 04:22:12;;;;;;;31.33;17.57;;;;;;;-143.21;90.75;72938.88;5030984;28;20204;-80
2023/12/07 04:24:38;;;;;;;31.50;18.10;;;;;;;-143.21;89.45;72968.63;5031751;28;20190;-82
2023/12/07 04:27:07;;;;;;;34.43;18.47;;;;;;;-143.21;90.85;72986.47;5031915;28;20201;-80
2023/12/07 04:29:33;;;;;;;34.53;19.27;;;;;;;-143.21;91.52;72992.41;5023976;28;20207;-81
2023/12/07 04:32:00;;;;;;;38.03;21.83;;;;;;;-143.21;92.55;72994.41;5011167;28;20577;-81
2023/12/07 04:34:27;;;;;;;45.97;26.03;;;;;;;-143.21;92.39;72980.53;5016241;28;20202;-80
2023/12/07 04:36:54;;;;;;;55.63;31.60;;;;;;;-143.21;93.00;72972.59;5030965;28;20664;-81
2023/12/07 04:39:22;;;;;;;57.43;32.27;;;;;;;-143.21;92.80;72962.66;5031775;28;20274;-81
2023/12/07 04:41:49;;;;;;;45.73;26.80;;;;;;;-143.21;92.10;72954.72;5031879;28;20197;-81
2023/12/07 04:44:17;;;;;;;46.27;25.50;;;;;;;-143.21;91.71;72952.75;5031360;28;20201;-82
2023/12/07 04:46:44;;;;;;;42.17;23.67;;;;;;;-143.21;91.54;72940.84;5031243;28;20191;-85
2023/12/07 04:49:10;;;;;;;43.13;23.80;;;;;;;-143.21;91.08;72946.81;5031901;28;20195;-84
2023/12/07 04:51:37;;;;;;;43.20;24.50;;;;;;;-143.21;91.14;72940.84;5030579;28;20597;-77
2023/12/07 04:54:04;;;;;;;42.60;24.77;;;;;;;-143.21;90.77;72938.88;5030980;28;20206;-77
2023/12/07 04:56:30;;;;;;;45.77;25.97;;;;;;;-143.21;91.03;72938.88;5031640;28;20218;-78
2023/12/07 04:58:58;;;;;;;42.33;24.00;;;;;;;-143.21;90.64;72954.72;5031116;28;20195;-77
2023/12/07 05:01:26;;;;;;;43.90;23.57;;;;;;;-143.21;90.81;72962.66;5031028;28;20202;-78
2023/12/07 05:03:53;;;;;;;41.40;23.57;;;;;;;-143.21;91.08;72976.56;5031089;28;20209;-78
2023/12/07 05:06:19;;;;;;;43.77;23.50;;;;;;;-143.21;91.54;72962.66;5030981;28;20194;-78
2023/12/07 05:08:46;;;;;;;41.70;23.67;;;;;;;-143.21;91.15;72958.69;5031043;28;20677;-78
2023/12/07 05:11:13;;;;;;;39.10;23.50;;;;;;;-143.21;91.21;72952.75;5031368;28;20682;-78
2023/12/07 05:13:40;;;;;;;42.53;24.20;;;;;;;-143.21;90.77;72968.63;5050683;28;20190;-77
2023/12/07 05:16:08;;;;;;;41.43;23.30;;;;;;;-143.21;90.52;72970.59;5036028;28;20226;-79
2023/12/07 05:18:36;;;;;;;42.53;23.83;;;;;;;-143.21;90.63;72976.56;5030889;28;20199;-78
2023/12/07 05:21:03;;;;;;;41.60;22.83;;;;;;;-143.21;90.78;72978.53;5031047;28;20195;-78
2023/12/07 05:23:29;;;;;;;42.30;23.60;;;;;;;-143.21;90.97;72970.59;5031276;28;20556;-78
2023/12/07 05:25:56;;;;;;;41.60;23.37;;;;;;;-143.21;91.57;72972.59;5030920;28;20258;-77
2023/12/07 05:28:23;;;;;;;37.67;21.83;;;;;;;-143.21;90.87;72962.66;5030403;28;20202;-79
2023/12/07 05:30:50;;;;;;;33.83;19.73;;;;;;;-143.21;91.19;72970.59;5030075;28;20214;-78
2023/12/07 05:33:20;;;;;;;32.00;18.80;;;;;;;-143.21;90.84;72958.69;5033293;28;20201;-78
2023/12/07 05:35:48;;;;;;;31.37;18.43;;;;;;;-143.21;90.74;72952.75;5033964;28;20211;-77
2023/12/07 05:38:15;;;;;;;33.33;18.33;;;;;;;-143.21;90.75;72952.75;5033773;28;20586;-78
2023/12/07 05:40:42;;;;;;;42.23;21.67;;;;;;;-143.21;90.57;72954.72;5033805;28;20201;-77
2023/12/07 05:43:09;;;;;;;42.07;23.80;;;;;;;-143.21;89.87;72952.75;5033094;28;20581;-78
2023/12/07 05:45:35;;;;;;;43.93;24.50;;;;;;;-143.21;89.84;72960.69;5033658;28;20205;-77
2023/12/07 05:48:04;;;;;;;47.83;27.80;;;;;;;-143.21;90.08;72966.63;5033137;28;20195;-76
2023/12/07 05:50:30;;;;;;;45.77;25.77;;;;;;;-143.21;90.33;72960.69;5027924;28;20195;-75
2023/12/07 05:52:59;;;;;;;49.90;28.33;;;;;;;-143.21;89.95;72956.72;5028865;28;20207;-76
2023/12/07 05:55:26;;;;;;;47.07;27.53;;;;;;;-143.21;89.45;72956.72;5024856;28;20693;-77
2023/12/07 05:57:53;;;;;;;49.27;28.40;;;;;;;-143.21;89.60;72956.72;5027937;28;20201;-81
2023/12/07 06:00:20;;;;;;;53.33;29.40;;;;;;;-143.21;89.87;72954.72;5033135;28;20669;-77
2023/12/07 06:02:47;;;;;;;54.80;31.03;;;;;;;-143.21;89.51;72948.78;5032420;28;20208;-77
2023/12/07 06:05:14;;;;;;;48.87;27.93;;;;;;;-143.21;89.08;72948.78;5033661;28;20198;-78
2023/12/07 06:07:40;;;;;;;55.10;28.67;;;;;;;-143.21;89.44;72950.78;5033833;28;20564;-79
2023/12/07 06:10:10;;;;;;;53.20;30.47;;;;;;;-143.21;89.89;72950.78;5034293;28;20199;-78
2023/12/07 06:12:37;;;;;;;56.60;31.80;;;;;;;-143.21;89.62;72946.81;5033709;28;20235;-78
2023/12/07 06:15:06;;;;;;;55.17;31.80;;;;;;;-143.21;89.45;72942.84;5033300;28;20202;-77
2023/12/07 06:17:33;;;;;;;53.77;31.47;;;;;;;-143.21;89.28;72940.84;5034017;28;20202;-77
2023/12/07 06:20:03;;;;;;;57.57;32.60;;;;;;;-143.21;89.58;72940.84;5032514;28;20203;-76
2023/12/07 06:22:30;;;;;;;68.37;38.33;;;;;;;-143.21;89.69;72946.81;5032287;28;20582;-77
2023/12/07 06:24:57;;;;;;;67.03;39.23;;;;;;;-143.21;90.12;72954.72;5033495;28;20198;-77
2023/12/07 06:27:25;;;;;;;62.17;36.50;;;;;;;-143.21;90.02;72940.84;5033014;28;20191;-77
2023/12/07 06:29:52;;;;;;;56.43;32.03;;;;;;;-143.21;89.67;72932.91;5032943;28;20205;-76
2023/12/07 06:32:19;;;;;;;52.50;28.93;;;;;;;-143.21;89.48;72930.94;5033391;28;20202;-77
2023/12/07 06:34:46;;;;;;;48.27;27.57;;;;;;;-143.21;88.85;72934.91;5033006;28;20199;-77
2023/12/07 06:37:13;;;;;;;50.70;27.60;;;;;;;-143.21;88.71;72936.88;5032597;28;20215;-77
2023/12/07 06:39:40;;;;;;;49.27;28.60;;;;;;;-143.21;88.38;72938.88;5032876;28;20202;-78
2023/12/07 06:42:07;;;;;;;46.47;26.53;;;;;;;-143.21;87.85;72938.88;5032476;28;20674;-78
2023/12/07 06:44:37;;;;;;;47.80;26.20;;;;;;;-143.21;88.30;72948.78;5032590;28;20195;-77
2023/12/07 06:47:04;;;;;;;51.93;26.53;;;;;;;-143.21;88.19;72942.84;5033018;28;20238;-76
2023/12/07 06:49:31;;;;;;;44.70;27.13;;;;;;;-143.21;88.53;72942.84;5033467;28;20187;-78
2023/12/07 06:51:58;;;;;;;61.53;37.80;;;;;;;-143.21;88.86;72926.97;5032677;28;20719;-78
2023/12/07 06:54:24;;;;;;;72.33;44.23;;;;;;;-143.21;89.07;72934.91;5032381;28;20199;-76
2023/12/07 06:56:51;;;;;;;57.93;37.70;;;;;;;-143.21;89.38;72934.91;5032318;28;20229;-77
2023/12/07 06:59:18;;;;;;;49.03;31.80;;;;;;;-143.21;88.73;72936.88;5032716;28;20194;-77
2023/12/07 07:01:49;;;;;;;34.13;21.80;;;;;;;-143.21;88.60;72954.72;5032419;28;20277;-77
2023/12/07 07:04:17;;;;;;;41.53;19.13;;;;;;;-143.21;89.09;72974.56;5032210;28;20202;-77
2023/12/07 07:06:44;;;;;;;31.83;19.67;;;;;;;-143.21;89.53;72988.47;5031338;28;20190;-76
2023/12/07 07:09:12;;;;;;;35.93;17.10;;;;;;;-143.21;89.87;72982.50;5031725;28;20203;-77
2023/12/07 07:11:39;;;;;;;28.03;16.40;;;;;;;-143.21;90.18;72970.59;5031124;28;20238;-77
2023/12/07 07:14:06;;;;;;;26.43;15.47;;;;;;;-143.21;90.09;72956.72;5031694;28;20626;-78
2023/12/07 07:16:32;;;;;;;24.77;14.20;;;;;;;-143.21;89.48;72960.69;5031908;28;20772;-77
2023/12/07 07:19:01;;;;;;;25.27;14.00;;;;;;;-143.21;89.55;72962.66;5031765;28;20552;-77
2023/12/07 07:21:27;;;;;;;24.37;14.27;;;;;;;-143.21;89.84;72964.66;5031515;28;20201;-77
2023/12/07 07:23:54;;;;;;;23.40;13.97;;;;;;;-143.21;89.12;72952.75;5031836;28;20661;-77
2023/12/07 07:26:21;;;;;;;28.80;15.23;;;;;;;-143.21;88.99;72946.81;5031714;28;20195;-77
2023/12/07 07:28:48;;;;;;;27.17;14.70;;;;;;;-143.21;89.23;72944.81;5031322;28;20630;-77
2023/12/07 07:31:15;;;;;;;24.83;14.23;;;;;;;-143.21;88.88;72940.84;5032237;28;20203;-78
2023/12/07 07:33:42;;;;;;;29.57;15.57;;;;;;;-143.21;88.82;72934.91;5031588;28;20565;-77
2023/12/07 07:36:11;;;;;;;23.07;14.23;;;;;;;-143.21;88.38;72934.91;5030980;28;20611;-77
2023/12/07 07:38:38;;;;;;;23.00;13.57;;;;;;;-143.21;87.47;72938.88;5031319;28;20203;-78
2023/12/07 07:41:05;;;;;;;19.60;11.83;;;;;;;-143.21;88.36;72980.53;5031430;28;20195;-77
2023/12/07 07:43:34;;;;;;;14.83;8.80;;;;;;;-143.21;88.74;73002.34;5031761;28;20209;-76
2023/12/07 07:46:01;;;;;;;16.77;9.90;;;;;;;-143.21;88.52;73020.19;5031528;28;20644;-77
2023/12/07 07:48:27;;;;;;;14.77;9.60;;;;;;;-143.21;88.73;73016.22;5031552;28;20704;-78
2023/12/07 07:50:54;;;;;;;14.57;8.70;;;;;;;-143.21;88.35;73002.34;5031364;28;20190;-77
2023/12/07 07:53:22;;;;;;;11.03;7.30;;;;;;;-143.21;88.11;73008.28;5035001;28;20208;-84
2023/12/07 07:55:49;;;;;;;11.60;7.40;;;;;;;-143.21;87.64;73036.06;5034437;28;20200;-82
2023/12/07 07:58:16;;;;;;;14.00;7.43;;;;;;;-143.21;88.03;73030.09;5031795;28;20194;-78
2023/12/07 08:00:43;;;;;;;15.67;7.20;;;;;;;-143.21;88.47;73053.91;5031581;28;20274;-78
2023/12/07 08:03:10;;;;;;;13.67;8.33;;;;;;;-143.21;89.20;73067.78;5031665;28;20633;-80
2023/12/07 08:05:37;;;;;;;18.27;12.83;;;;;;;-143.21;88.66;73091.59;5031567;28;20194;-78
2023/12/07 08:08:04;;;;;;;29.63;18.67;;;;;;;-143.21;89.86;73099.53;5031682;28;20193;-78
2023/12/07 08:10:32;;;;;;;29.73;21.67;;;;;;;-143.21;89.92;73099.53;5031610;28;20198;-79
2023/12/07 08:12:59;;;;;;;30.03;21.43;;;;;;;-143.21;89.80;73125.31;5031423;28;20240;-79
2023/12/07 08:15:26;;;;;;;37.67;24.37;;;;;;;-143.21;89.59;73147.13;5031440;28;20205;-79
2023/12/07 08:17:53;;;;;;;25.10;17.43;;;;;;;-143.21;90.76;73135.25;5031240;28;20224;-78
2023/12/07 08:20:20;;;;;;;17.20;11.57;;;;;;;-143.21;91.48;73133.25;5031215;28;20189;-78
2023/12/07 08:22:50;;;;;;;11.47;7.80;;;;;;;-143.21;91.31;73145.16;5031447;28;20198;-78
2023/12/07 08:25:21;;;;;;;10.27;7.40;;;;;;;-143.21;90.68;73157.06;5031332;28;20205;-78
2023/12/07 08:27:50;;;;;;;10.60;6.70;;;;;;;-143.21;90.99;73161.03;5031588;28;20198;-78
2023/12/07 08:30:18;;;;;;;10.10;6.37;;;;;;;-143.21;90.24;73172.94;5031621;28;20198;-79
2023/12/07 08:32:45;;;;;;;10.57;7.03;;;;;;;-143.21;90.71;73170.94;5031357;28;20204;-78
2023/12/07 08:35:12;;;;;;;9.47;6.97;;;;;;;-143.21;90.04;73163.00;5030830;28;20201;-77
2023/12/07 08:37:42;;;;;;;10.93;7.67;;;;;;;-143.21;90.24;73149.13;5031248;28;20225;-78
2023/12/07 08:40:11;;;;;;;14.40;8.00;;;;;;;-143.21;89.63;73151.09;5030841;28;20687;-78
2023/12/07 08:42:39;;;;;;;11.20;7.23;;;;;;;-143.21;89.06;73176.91;5031099;28;20235;-79
2023/12/07 08:45:08;;;;;;;10.20;6.90;;;;;;;-143.21;89.34;73184.84;5031000;28;20209;-77
2023/12/07 08:47:35;;;;;;;8.43;6.00;;;;;;;-143.21;88.58;73174.91;5031134;28;20600;-81
2023/12/07 08:50:02;;;;;;;6.47;5.10;;;;;;;-143.21;88.05;73202.69;5030603;28;20204;-83
2023/12/07 08:52:29;;;;;;;7.47;5.43;;;;;;;-143.21;88.55;73214.59;5031680;28;20196;-82
2023/12/07 08:54:55;;;;;;;8.30;5.50;;;;;;;-143.21;88.61;73214.59;5031569;28;20263;-81
2023/12/07 08:57:22;;;;;;;8.43;5.73;;;;;;;-143.21;89.14;73220.53;5031039;28;20233;-80
2023/12/07 08:59:49;;;;;;;10.57;6.37;;;;;;;-143.21;88.38;73204.66;5030734;28;20197;-79
2023/12/07 09:02:18;;;;;;;10.63;6.60;;;;;;;-143.21;86.51;73198.72;5031081;28;20206;-85
2023/12/07 09:04:44;;;;;;;10.17;6.40;;;;;;;-143.21;87.85;73232.44;5031497;28;20598;-79
2023/12/07 09:07:15;;;;;;;11.50;7.27;;;;;;;-143.21;89.45;73232.44;5033461;28;20285;-86
2023/12/07 09:09:46;;;;;;;15.10;7.63;;;;;;;-143.21;89.76;73228.47;5035955;28;20191;-79
2023/12/07 09:12:13;;;;;;;8.77;6.57;;;;;;;-143.21;89.52;73242.34;5035106;28;20285;-85
2023/12/07 09:14:40;;;;;;;11.93;6.33;;;;;;;-143.21;90.03;73260.22;5032203;28;20482;-82
2023/12/07 09:17:07;;;;;;;9.27;6.40;;;;;;;-143.21;90.04;73264.19;5015206;28;20219;-84
2023/12/07 09:19:36;;;;;;;8.97;5.07;;;;;;;-143.21;90.11;73264.19;5015006;28;20715;-85
2023/12/07 09:22:02;;;;;;;10.40;6.80;;;;;;;-143.21;90.24;73289.97;5016363;28;20216;-90
2023/12/07 09:24:29;;;;;;;9.77;6.37;;;;;;;-143.21;90.55;73305.84;5016284;28;20218;-88
2023/12/07 09:26:56;;;;;;;8.73;5.87;;;;;;;-143.21;91.32;73323.69;5030297;28;20215;-88
2023/12/07 09:29:23;;;;;;;11.37;6.40;;;;;;;-143.21;92.05;73313.78;5017963;28;20225;-87
2023/12/07 09:31:50;;;;;;;9.57;6.27;;;;;;;-143.21;92.53;73317.75;5015834;28;20199;-88
2023/12/07 09:34:18;;;;;;;6.70;4.20;;;;;;;-143.21;91.62;73317.75;5016465;28;20207;-89
2023/12/07 09:36:46;;;;;;;7.33;4.60;;;;;;;-143.21;92.22;73333.59;5016152;28;20646;-90
2023/12/07 09:39:14;;;;;;;6.63;4.90;;;;;;;-143.21;92.80;73349.47;5015605;28;20191;-90
2023/12/07 09:41:43;;;;;;;10.17;5.27;;;;;;;-143.21;93.62;73351.47;5015811;28;20249;-89
2023/12/07 09:44:10;;;;;;;7.97;5.00;;;;;;;-143.21;93.65;73343.53;5016678;28;20570;-89
2023/12/07 09:46:38;;;;;;;8.33;5.47;;;;;;;-143.21;92.76;73323.69;5015340;28;20192;-88
2023/12/07 09:49:05;;;;;;;7.47;4.70;;;;;;;-143.21;90.72;73327.66;5015439;28;20218;-86
2023/12/07 09:51:33;;;;;;;10.87;6.37;;;;;;;-143.21;91.15;73333.59;5014567;28;20235;-86
2023/12/07 09:54:02;;;;;;;9.47;6.60;;;;;;;-143.21;92.63;73331.63;5014467;28;20207;-86
2023/12/07 09:56:29;;;;;;;10.60;6.77;;;;;;;-143.21;91.70;73351.47;5014359;28;20192;-86
2023/12/07 09:58:56;;;;;;;7.23;5.57;;;;;;;-143.21;92.29;73359.41;5014324;28;20628;-86
2023/12/07 10:01:29;;;;;;;10.33;7.50;;;;;;;-143.21;92.55;73371.28;5014867;28;20221;-83
2023/12/07 10:04:17;;;;;;;12.93;6.20;;;;;;;-143.21;93.26;73377.25;5014610;28;20199;-85
2023/12/07 10:06:45;;;;;;;7.67;4.20;;;;;;;-143.21;92.33;73373.28;5013100;28;20211;-81
2023/12/07 10:09:14;;;;;;;6.17;3.83;;;;;;;-143.21;92.08;73387.16;5013760;28;20617;-81
2023/12/07 10:11:43;;;;;;;4.90;3.37;;;;;;;-143.21;92.94;73383.19;5015629;28;20278;-81
2023/12/07 10:14:10;;;;;;;6.30;4.10;;;;;;;-143.21;92.86;73403.03;5032479;28;20583;-81
2023/12/07 10:16:37;;;;;;;6.30;3.50;;;;;;;-143.21;93.61;73420.91;5030528;28;20701;-81
2023/12/07 10:19:17;;;;;;;4.07;3.23;;;;;;;-143.21;94.11;73422.88;5033143;28;20233;-83
2023/12/07 10:21:44;;;;;;;5.03;3.20;;;;;;;-143.21;93.69;73412.97;5034099;28;20191;-80
2023/12/07 10:24:13;;;;;;;7.07;4.03;;;;;;;-143.21;94.03;73412.97;5031113;28;20226;-81
2023/12/07 10:26:41;;;;;;;5.93;4.20;;;;;;;-143.21;93.92;73387.16;5032984;28;20190;-79
2023/12/07 10:29:07;;;;;;;7.40;4.80;;;;;;;-143.21;92.42;73389.16;5033235;28;20280;-80
2023/12/07 10:31:35;;;;;;;7.13;4.17;;;;;;;-143.21;91.91;73395.09;5033186;28;20210;-80
2023/12/07 10:34:02;;;;;;;8.97;6.20;;;;;;;-143.21;93.21;73407.00;5033284;28;20198;-81
2023/12/07 10:36:29;;;;;;;8.97;6.37;;;;;;;-143.21;93.90;73414.94;5033202;28;20218;-80
2023/12/07 10:38:56;;;;;;;7.57;5.47;;;;;;;-143.21;94.45;73420.91;5032990;28;20198;-80
2023/12/07 10:41:25;;;;;;;8.70;6.53;;;;;;;-143.21;94.58;73424.84;5033187;28;20187;-80
2023/12/07 10:43:54;;;;;;;8.23;6.00;;;;;;;-143.21;94.86;73426.84;5033474;28;20218;-80
2023/12/07 10:46:22;;;;;;;7.17;5.70;;;;;;;-143.21;94.81;73422.88;5033302;28;20566;-81
2023/12/07 10:48:52;;;;;;;8.63;5.67;;;;;;;-143.21;94.52;73422.88;5032946;28;20574;-81
2023/12/07 10:51:29;;;;;;;13.47;7.93;;;;;;;-143.21;94.10;73422.88;5029105;28;20198;-80
2023/12/07 10:53:58;;;;;;;7.97;4.57;;;;;;;-143.21;94.13;73432.78;5013474;28;20613;-80
2023/12/07 10:56:34;;;;;;;7.73;5.70;;;;;;;-143.21;93.58;73438.75;5013721;28;20199;-82
2023/12/07 10:59:01;;;;;;;12.50;8.40;;;;;;;-143.21;93.49;73444.69;5013303;28;20175;-81
2023/12/07 11:01:30;;;;;;;16.23;11.57;;;;;;;-143.21;94.03;73452.63;5013184;28;20199;-83
2023/12/07 11:03:59;;;;;;;20.33;14.80;;;;;;;-143.21;94.70;73464.53;5012992;28;20192;-82
2023/12/07 11:06:26;;;;;;;13.83;10.30;;;;;;;-143.21;94.94;73474.47;5012797;28;20202;-82